• Join FlightAware (Why Join?)
  • Login
  • US Flag 
05:10AM EDT


 

Airport Tracker/Info


-or-


 

Live Flight TrackerFlight Track Log ✈ N30VP ✈ 26-Oct-2013 ✈ KPBI - KOKV

Flight Track Log - Related Links

Times and Time Zones

All times are in EDT time to prevent confusion due to time zone crossing. See the N30VP flight status page for this flight to view local times or setup timezone preferences in your user account.

Time Position Orientation Groundspeed Altitude Reporting Facility
EDT Latitude Longitude Course Direction KTS MPH feet Rate Location/Type
10:46AM 26.7756 -80.0003 354° North 243 280 10,000  Level Miami Center
10:47AM 26.8672 -80.0144 352° North 326 375 10,000  Level Miami Center
10:48AM 26.9539 -80.0539 338° Northwest 345 397 10,100 960 Climbing Miami Center
10:49AM 26.9806 -80.1736 284° West 323 372 12,000 900 Climbing Miami Center
10:50AM 27.3411 -80.0050 326° Northwest  Level Estimated
10:50AM 27.0050 -80.2861 284° West 352 405 12,000  Level Miami Center
10:51AM 27.0317 -80.4011 285° West 373 429 12,300 1,980 Climbing Miami Center
10:52AM 27.1075 -80.4594 326° Northwest 353 406 16,000 3,540 Climbing Miami Center
10:53AM 27.1983 -80.4997 338° Northwest 353 406 19,400 3,240 Climbing Miami Center
10:54AM 27.2850 -80.5328 341° North 342 394 22,500 2,820 Climbing Miami Center
10:55AM 27.3697 -80.5706 338° Northwest 330 380 25,100 2,460 Climbing Miami Center
10:56AM 27.4544 -80.6036 341° North 325 374 27,500 1,980 Climbing Miami Center
10:57AM 27.5433 -80.6369 342° North 325 374 29,100 1,380 Climbing Miami Center
10:58AM 27.6342 -80.6753 340° North 335 386 30,300 1,440 Climbing Miami Center
10:59AM 27.7311 -80.7158 340° North 349 402 32,000 1,620 Climbing Miami Center
11:00AM 27.8261 -80.7544 340° North 355 409 33,600 1,620 Climbing Miami Center
11:01AM 27.9358 -80.7958 342° North 371 427 35,300 1,500 Climbing Miami Center
11:02AM 28.0306 -80.8344 340° North 364 419 36,700 1,320 Climbing Miami Center
11:03AM 28.1214 -80.8728 340° North 364 419 38,000 1,140 Climbing Miami Center
11:04AM 28.2122 -80.9114 339° North 353 406 39,000 480 Climbing Miami Center
11:05AM 28.3050 -80.9500 340° North 353 406 39,000  Level Miami Center
11:06AM 28.4081 -80.9917 340° North 367 422 39,000  Level Miami Center
11:07AM 28.4681 -81.0200 337° Northwest 380 437 39,000  Level Jacksonville Center
11:08AM 28.5750 -81.0631 341° North 411 473 39,000  Level Jacksonville Center
11:09AM 28.6822 -81.1058 341° North 411 473 39,000  Level Jacksonville Center
11:10AM 28.7911 -81.1394 345° North 411 473 39,000  Level Jacksonville Center
11:11AM 28.9042 -81.1661 348° North 405 466 39,000  Level Jacksonville Center
11:12AM 29.0172 -81.1925 348° North 405 466 39,000  Level Jacksonville Center
11:13AM 29.1325 -81.2192 349° North 410 472 39,000  Level Jacksonville Center
11:14AM 29.2456 -81.2456 348° North 410 472 39,000  Level Jacksonville Center
11:15AM 29.3650 -81.2769 347° North 410 472 39,000  Level Jacksonville Center
11:16AM 29.4717 -81.3014 349° North 417 480 39,000  Level Jacksonville Center
11:17AM 29.5825 -81.3283 348° North 412 474 39,000  Level Jacksonville Center
11:18AM 29.6978 -81.3553 349° North 412 474 39,000  Level Jacksonville Center
11:19AM 29.8108 -81.3822 348° North 412 474 39,000  Level Jacksonville Center
11:20AM 29.9239 -81.4092 348° North 412 474 39,000  Level Jacksonville Center
11:21AM 30.0389 -81.4386 348° North 412 474 39,000  Level Jacksonville Center
11:22AM 30.1519 -81.4656 348° North 412 474 39,000  Level Jacksonville Center
11:23AM 30.2672 -81.4928 348° North 412 474 39,000  Level Jacksonville Center
11:24AM 30.3947 -81.5175 351° North 412 474 39,000  Level Jacksonville Center
11:25AM 30.5092 -81.4797 16° North 430 495 39,000  Level Jacksonville Center
11:26AM 30.6322 -81.4633 North 435 501 39,000  Level Jacksonville Center
11:27AM 30.7553 -81.4397 North 441 507 39,000  Level Jacksonville Center
11:28AM 30.8761 -81.4233 North 441 507 39,000  Level Jacksonville Center
11:29AM 31.0011 -81.3994 North 446 513 39,000  Level Jacksonville Center
11:30AM 31.1239 -81.3783 North 441 507 39,000  Level Jacksonville Center
11:31AM 31.2447 -81.3569 North 441 507 39,000  Level Jacksonville Center
11:32AM 31.3761 -81.3328 North 434 499 39,000  Level Jacksonville Center
11:33AM 31.4844 -81.3139 North 434 499 39,000  Level Jacksonville Center
11:34AM 31.6156 -81.2897 North 434 499 39,000  Level Jacksonville Center
11:35AM 31.7261 -81.2708 North 439 505 39,000  Level Jacksonville Center
11:36AM 31.8614 -81.2489 North 444 511 39,000  Level Jacksonville Center
11:37AM 31.9739 -81.2322 North 444 511 39,000  Level Jacksonville Center
11:38AM 32.0969 -81.2103 North 444 511 39,000  Level Jacksonville Center
11:39AM 32.2197 -81.1761 13° North 444 511 39,000  Level Jacksonville Center
11:40AM 32.3381 -81.1297 18° North 449 517 39,000  Level Jacksonville Center
11:41AM 32.4750 -81.0825 16° North 456 525 39,000  Level Jacksonville Center
11:42AM 32.5831 -81.0483 15° North 451 519 39,000  Level Jacksonville Center
11:43AM 32.7078 -81.0114 14° North 451 519 39,000  Level Jacksonville Center
11:44AM 32.8306 -80.9767 13° North 451 519 39,000  Level Jacksonville Center
11:45AM 32.9531 -80.9369 15° North 451 519 39,000  Level Jacksonville Center
11:46AM 33.0778 -80.9019 13° North 451 519 39,000  Level Jacksonville Center
11:47AM 33.2003 -80.8644 14° North 451 519 39,000 -60 Level Jacksonville Center
11:48AM 33.3250 -80.8292 13° North 451 519 38,900  Descending Jacksonville Center
11:49AM 33.4494 -80.7892 15° North 451 519 39,000  Climbing Jacksonville Center
11:50AM 33.5761 -80.7511 14° North 451 519 39,000  Level Jacksonville Center
11:52AM 33.8544 -80.6644 14° North 453 521 39,000  Level Atlanta Center
11:53AM 33.9786 -80.6269 14° North 449 517 39,000  Level Atlanta Center
11:54AM 34.0867 -80.6150 North 438 504 39,000  Level Atlanta Center
11:55AM 34.2114 -80.5975 North 444 511 39,000  Level Atlanta Center
11:56AM 34.3361 -80.5822 North 439 505 39,000  Level Atlanta Center
11:57AM 34.4589 -80.5697 North 439 505 39,000  Level Atlanta Center
11:58AM 34.5789 -80.5244 17° North 445 512 39,000  Level Atlanta Center
11:59AM 34.7006 -80.4789 17° North 450 518 39,000  Level Atlanta Center
12:00PM 34.8225 -80.4358 16° North 450 518 39,000  Level Atlanta Center
12:01PM 34.9544 -80.3844 18° North 450 518 39,000  Level Atlanta Center
12:02PM 35.0742 -80.3411 16° North 450 518 39,000  Level Atlanta Center
12:03PM 35.1939 -80.2978 16° North 450 518 39,000  Level Atlanta Center
12:04PM 35.3136 -80.2514 18° North 450 518 39,000  Level Atlanta Center
12:05PM 35.4331 -80.2053 17° North 450 518 39,000  Level Atlanta Center
12:06PM 35.5528 -80.1614 17° North 455 524 39,000 -420 Level Atlanta Center
12:08PM 35.7800 -80.0750 17° North 445 512 37,900 -780 Descending Washington Center
12:09PM 35.8878 -80.0403 15° North 440 506 36,800 -1,080 Descending Washington Center
12:10PM 36.0019 -79.9978 17° North 440 506 35,800 -720 Descending Washington Center
12:11PM 36.1167 -79.9425 21° North 440 506 35,400 -420 Descending Washington Center
12:12PM 36.2317 -79.8794 24° Northeast 440 506 35,000 -240 Descending Washington Center
12:13PM 36.3483 -79.8214 22° Northeast 440 506 35,000  Level Washington Center
12:14PM 36.4656 -79.7528 25° Northeast 447 514 35,000  Level Washington Center
12:15PM 36.5825 -79.6892 24° Northeast 452 520 35,000 -240 Level Washington Center
12:16PM 36.7017 -79.6231 24° Northeast 452 520 34,600 -600 Descending Washington Center
12:17PM 36.8333 -79.5519 23° Northeast 457 526 33,900 -660 Descending Washington Center
12:18PM 36.9481 -79.4903 23° Northeast 451 519 33,400 -1,020 Descending Washington Center
12:19PM 37.0669 -79.4233 24° Northeast 451 519 31,900 -1,620 Descending Washington Center
12:20PM 37.1858 -79.3589 23° Northeast 456 525 30,200 -1,680 Descending Washington Center
12:21PM 37.2919 -79.2989 24° Northeast 456 525 28,600 -1,680 Descending Washington Center
12:22PM 37.4108 -79.2342 23° Northeast 461 531 26,900 -1,680 Descending Washington Center
12:23PM 37.5147 -79.1789 23° Northeast 461 531 25,400 -1,500 Descending Washington Center
12:24PM 37.6547 -79.1014 24° Northeast 461 531 24,000 -720 Descending Washington Center
12:25PM 37.7692 -79.0386 23° Northeast 451 519 24,000  Level Washington Center
12:26PM 37.8836 -78.9753 24° Northeast 446 513 24,000 -540 Level Washington Center
12:27PM 37.9875 -78.9167 24° Northeast 446 513 23,000 4,560 Descending Washington Center
12:28PM 38.0975 -78.8556 24° Northeast 441 507 33,000 -2,040 Climbing Washington Center
12:29PM 38.2078 -78.7944 24° Northeast 436 502 19,000 -7,860 Descending Washington Center
12:30PM 38.3222 -78.7253 25° Northeast 419 482 17,100 -1,920 Descending Washington Center
12:31PM 38.4322 -78.6636 24° Northeast 419 482 15,300 -1,860 Descending Washington Center
12:32PM 38.5400 -78.6017 24° Northeast 419 482 13,500 -1,740 Descending Washington Center
12:33PM 38.6311 -78.5417 27° Northeast 395 455 11,900 -1,620 Descending Washington Center
12:34PM 38.7078 -78.4836 31° Northeast 353 406 10,300 -1,440 Descending Washington Center
12:35PM 38.7756 -78.4303 32° Northeast 315 362 9,100 -720 Descending Washington Center
12:36PM 38.8414 -78.3794 31° Northeast 283 326 9,000 -60 Descending Washington Center
12:37PM 38.8989 -78.3364 30° Northeast 276 318 9,000  Level Washington Center
12:38PM 38.9689 -78.2803 32° Northeast 269 310 9,000  Level Washington Center
12:39PM 39.0325 -78.2292 32° Northeast 269 310 9,000  Level Washington Center
12:40PM 39.0961 -78.1778 32° Northeast 269 310 9,000  Level Washington Center
12:41PM 39.1217 -78.1575 32° Northeast 269 310 9,000  Level Washington Center
12:43PM 39.1217 -78.1575 180° South 269 310 9,000  Level Washington Center
12:45PM 39.1333 -78.1333 38° Northeast  Level FlightAware Approximate
12:52PM 39.1435 -78.1444 38° Northeast  Level Estimated
12:53PM 39.1435 -78.1444 38° Northeast  Level Estimated
12:54PM 39.1435 -78.1444 38° Northeast  Level Estimated
12:55PM 39.1435 -78.1444 38° Northeast  Level Estimated
12:56PM 39.1435 -78.1444 38° Northeast  Level Estimated
12:57PM 39.1435 -78.1444 38° Northeast  Level Estimated
12:58PM 39.1435 -78.1444 38° Northeast  Level Estimated